Аэропорт: Рощино. Тюмень

ICAO: USTR

METAR:
2019-09-21 16:00:00
USTR 211600Z 16003MPS CAVOK 08/06 Q1011 R12/CLRD65 R21/CLRD65 NOSIG RMK QFE749/0999
METAR:
2019-09-21 13:48:00
TAF USTR 211348Z 2115/2215 12005MPS 3100 -SHRA BR OVC005 BKN015CB TEMPO 2115/2203 08005G12MPS 1200 SHRA VV003 BECMG 2203/2204 07005MPS TEMPO 2204/2209 03005G12MPS 1500 SHRA VV004 BECMG 2209/2210 31007G15MPS